Shirley, South Carolina
Current Conditions -  °F | °C
As of 2:55 PM on Saturday 25 Oct 2014 (Local Time) from KJYL Reporting Station
Clear Clear  
Wind Chill: 81°   Ceiling: Unl
Heat Index: 81°   Visibility: 10mi
Dew Point: 51°   Wind: 6mph
Humidity: 36%   Direction: 320°NW
Pressure: 29.99"   Gusts: NA
Location:  32.6001°N, 81.2393°W
Report Text: KJYL 251855Z AUTO 32005KT 10SM CLR 27/11 A2999 RMK AO2 T02700107
Loading
Personal Weather Stations






























Interactive Weather Map
Tropical Storm Tracking
New forecast layout! Learn more

10-Day Weather Forecast

Advertisements
Track Severe Weather on mobile